Time;durP1;ratioP1;P1;durP2;ratioP2;P2;SDS_P1;SDS_P2;PMS_P1;PMS_P2;Temp;Humidity;BMP_temperature;BMP_pressure;BME280_temperature;BME280_humidity;BME280_pressure;Samples;Min_cycle;Max_cycle;Signal;HPM_P1;HPM_P2
2021/11/22 00:00:44;;;;;;;10.30;5.13;;;5.40;99.90;;;;;;4984193;28;20458;-80
2021/11/22 00:03:10;;;;;;;11.53;4.33;;;5.40;99.90;;;;;;4986285;28;20539;-80
2021/11/22 00:05:36;;;;;;;5.50;4.50;;;5.40;99.90;;;;;;4982972;28;20492;-79
2021/11/22 00:08:02;;;;;;;10.70;5.20;;;5.40;99.90;;;;;;4984522;28;20857;-80
2021/11/22 00:10:28;;;;;;;11.60;4.87;;;5.40;99.90;;;;;;4984008;28;20521;-80
2021/11/22 00:12:54;;;;;;;17.87;6.30;;;5.30;99.90;;;;;;4986924;28;20212;-79
2021/11/22 00:15:20;;;;;;;7.93;5.70;;;5.30;99.90;;;;;;4986885;28;20181;-80
2021/11/22 00:17:46;;;;;;;13.90;5.13;;;5.30;99.90;;;;;;4985555;28;22052;-80
2021/11/22 00:20:18;;;;;;;9.73;4.43;;;5.30;99.90;;;;;;4983869;28;20239;-80
2021/11/22 00:22:44;;;;;;;19.17;5.60;;;5.40;99.90;;;;;;4985309;28;20514;-79
2021/11/22 00:25:11;;;;;;;9.50;4.50;;;5.50;99.90;;;;;;4986635;28;20451;-79
2021/11/22 00:27:37;;;;;;;9.03;3.97;;;5.60;99.90;;;;;;4983253;28;20807;-80
2021/11/22 00:30:14;;;;;;;12.97;5.00;;;5.50;99.90;;;;;;4963648;28;20545;-79
2021/11/22 00:33:00;;;;;;;11.83;5.00;;;5.60;99.90;;;;;;4959664;28;20903;-80
2021/11/22 00:35:48;;;;;;;8.27;3.63;;;5.50;99.90;;;;;;4977364;28;20459;-80
2021/11/22 00:38:14;;;;;;;6.50;3.90;;;5.50;99.90;;;;;;4978649;28;20934;-79
2021/11/22 00:40:40;;;;;;;14.00;5.03;;;5.40;99.90;;;;;;4977713;28;20516;-79
2021/11/22 00:43:06;;;;;;;11.90;4.53;;;5.30;99.90;;;;;;4980265;28;20676;-80
2021/11/22 00:45:33;;;;;;;11.20;4.40;;;5.30;99.90;;;;;;4977067;28;20204;-80
2021/11/22 00:47:59;;;;;;;10.70;4.50;;;5.20;99.90;;;;;;4977387;28;20521;-80
2021/11/22 00:50:26;;;;;;;7.43;4.50;;;5.20;99.90;;;;;;4978080;28;20487;-79
2021/11/22 00:52:52;;;;;;;11.67;4.30;;;5.20;99.90;;;;;;4976895;28;20446;-79
2021/11/22 00:55:18;;;;;;;12.83;5.90;;;5.20;99.90;;;;;;4981412;28;20444;-80
2021/11/22 00:57:43;;;;;;;13.83;4.60;;;5.20;99.90;;;;;;4982100;28;20592;-80
2021/11/22 01:00:12;;;;;;;9.63;4.50;;;5.10;99.90;;;;;;4975668;28;20188;-79
2021/11/22 01:02:38;;;;;;;9.80;4.63;;;5.10;99.90;;;;;;4976720;28;20191;-80
2021/11/22 01:05:05;;;;;;;6.57;4.20;;;5.10;99.90;;;;;;4969895;28;20841;-79
2021/11/22 01:07:31;;;;;;;15.53;5.07;;;5.00;99.90;;;;;;4977364;28;20451;-80
2021/11/22 01:09:57;;;;;;;6.63;5.00;;;5.00;99.90;;;;;;4982290;28;20503;-79
2021/11/22 01:12:28;;;;;;;10.20;4.73;;;5.00;99.90;;;;;;4989916;28;20578;-79
2021/11/22 01:14:59;;;;;;;6.80;5.10;;;5.00;99.90;;;;;;4983760;28;20546;-79
2021/11/22 01:17:25;;;;;;;12.77;6.17;;;5.00;99.90;;;;;;4985277;28;20533;-79
2021/11/22 01:19:53;;;;;;;12.07;5.10;;;5.00;99.90;;;;;;4964810;28;20818;-79
2021/11/22 01:22:20;;;;;;;13.47;6.57;;;4.90;99.90;;;;;;4975233;28;20567;-80
2021/11/22 01:24:47;;;;;;;9.97;6.17;;;4.90;99.90;;;;;;4970968;28;21010;-79
2021/11/22 01:27:12;;;;;;;9.50;7.00;;;4.90;99.90;;;;;;4974239;28;21166;-79
2021/11/22 01:29:38;;;;;;;10.17;6.70;;;4.80;99.90;;;;;;4980377;28;20502;-80
2021/11/22 01:32:04;;;;;;;23.13;7.17;;;4.80;99.90;;;;;;4974029;28;20188;-79
2021/11/22 01:34:30;;;;;;;16.63;7.00;;;4.80;99.90;;;;;;4972988;28;20189;-80
2021/11/22 01:36:55;;;;;;;12.57;8.53;;;4.80;99.90;;;;;;4972533;28;20526;-77
2021/11/22 01:39:21;;;;;;;15.57;7.33;;;4.80;99.90;;;;;;4978099;28;20196;-79
2021/11/22 01:41:48;;;;;;;12.70;8.13;;;4.90;99.90;;;;;;4974210;28;20667;-79
2021/11/22 01:44:13;;;;;;;9.50;6.40;;;4.80;99.90;;;;;;4982043;28;21039;-79
2021/11/22 01:46:39;;;;;;;14.03;7.60;;;4.90;99.90;;;;;;4978726;28;20821;-80
2021/11/22 01:49:05;;;;;;;11.77;6.97;;;4.90;99.90;;;;;;4976800;28;20216;-79
2021/11/22 01:51:31;;;;;;;9.93;6.73;;;5.00;99.90;;;;;;4985514;28;20559;-79
2021/11/22 01:53:58;;;;;;;15.33;9.13;;;4.90;99.90;;;;;;4964282;28;20443;-79
2021/11/22 01:56:26;;;;;;;14.97;8.63;;;4.90;99.90;;;;;;4976396;28;20447;-79
2021/11/22 01:58:52;;;;;;;16.93;10.20;;;4.90;99.90;;;;;;4965405;28;20466;-79
2021/11/22 02:01:18;;;;;;;20.07;11.10;;;4.90;99.90;;;;;;4977922;28;20475;-79
2021/11/22 02:03:44;;;;;;;20.30;10.60;;;4.90;99.90;;;;;;4982499;28;21043;-78
2021/11/22 02:06:10;;;;;;;20.50;11.67;;;4.90;99.90;;;;;;4981062;28;20551;-79
2021/11/22 02:08:36;;;;;;;19.10;11.13;;;4.90;99.90;;;;;;4977708;28;20501;-79
2021/11/22 02:11:04;;;;;;;17.80;11.10;;;4.90;99.90;;;;;;4982780;28;20562;-78
2021/11/22 02:13:30;;;;;;;24.10;12.23;;;5.00;99.90;;;;;;4984855;28;20854;-79
2021/11/22 02:15:56;;;;;;;25.10;11.50;;;5.00;99.90;;;;;;4985525;28;20454;-79
2021/11/22 02:18:21;;;;;;;19.60;13.10;;;5.00;99.90;;;;;;4986600;28;20971;-79
2021/11/22 02:20:47;;;;;;;18.13;12.53;;;5.00;99.90;;;;;;4983164;28;20532;-79
2021/11/22 02:23:13;;;;;;;16.67;12.47;;;4.90;99.90;;;;;;4983434;28;20337;-79
2021/11/22 02:25:41;;;;;;;21.13;14.33;;;4.90;99.90;;;;;;4986512;28;20456;-78
2021/11/22 02:28:08;;;;;;;19.87;13.10;;;4.90;99.90;;;;;;4989225;28;20529;-78
2021/11/22 02:30:38;;;;;;;20.97;12.63;;;5.00;99.90;;;;;;4973506;28;20523;-79
2021/11/22 02:33:06;;;;;;;29.77;13.57;;;5.00;99.90;;;;;;4987901;28;20446;-78
2021/11/22 02:35:34;;;;;;;23.60;12.97;;;5.00;99.90;;;;;;4985888;28;20720;-78
2021/11/22 02:37:59;;;;;;;26.07;13.90;;;5.00;99.90;;;;;;4987597;28;20458;-79
2021/11/22 02:40:25;;;;;;;25.43;15.37;;;5.00;99.90;;;;;;4985951;28;20454;-79
2021/11/22 02:42:52;;;;;;;20.07;12.97;;;5.00;99.90;;;;;;4977261;28;20463;-79
2021/11/22 02:45:20;;;;;;;23.40;13.50;;;5.10;99.90;;;;;;4978479;28;20455;-79
2021/11/22 02:47:47;;;;;;;22.80;14.93;;;5.00;99.90;;;;;;4981715;28;20450;-79
2021/11/22 02:50:15;;;;;;;20.83;13.97;;;5.10;99.90;;;;;;4977094;28;21080;-79
2021/11/22 02:52:42;;;;;;;20.60;13.70;;;5.10;99.90;;;;;;4978265;28;20552;-80
2021/11/22 02:55:10;;;;;;;24.20;14.60;;;5.10;99.90;;;;;;4964890;28;20455;-79
2021/11/22 02:57:36;;;;;;;21.90;14.20;;;5.10;99.90;;;;;;4983464;28;20463;-79
2021/11/22 03:00:08;;;;;;;18.50;13.23;;;5.10;99.90;;;;;;4976239;28;21386;-80
2021/11/22 03:02:33;;;;;;;19.60;13.77;;;5.10;99.90;;;;;;4976764;28;20821;-79
2021/11/22 03:04:59;;;;;;;17.77;14.10;;;5.20;99.90;;;;;;4963549;28;20434;-79
2021/11/22 03:07:25;;;;;;;23.83;14.33;;;5.20;99.90;;;;;;4980055;28;20328;-80
2021/11/22 03:09:50;;;;;;;20.87;13.40;;;5.20;99.90;;;;;;4977593;28;20306;-80
2021/11/22 03:12:16;;;;;;;20.73;13.33;;;5.20;99.90;;;;;;4975713;28;20212;-79
2021/11/22 03:14:42;;;;;;;22.43;13.17;;;5.30;99.90;;;;;;4988677;28;20569;-79
2021/11/22 03:17:08;;;;;;;19.33;12.90;;;5.20;99.90;;;;;;4984377;28;20793;-80
2021/11/22 03:19:34;;;;;;;21.80;13.20;;;5.20;99.90;;;;;;4981971;28;20242;-80
2021/11/22 03:22:00;;;;;;;17.00;12.27;;;5.30;99.90;;;;;;4977504;28;20858;-79
2021/11/22 03:24:27;;;;;;;20.63;12.13;;;5.30;99.90;;;;;;4977669;28;20690;-79
2021/11/22 03:26:53;;;;;;;18.80;11.83;;;5.30;99.90;;;;;;4978322;28;20451;-80
2021/11/22 03:29:19;;;;;;;19.37;12.40;;;5.30;99.90;;;;;;4979688;28;20475;-79
2021/11/22 03:31:45;;;;;;;17.30;11.77;;;5.30;99.90;;;;;;4980955;28;21825;-80
2021/11/22 03:34:12;;;;;;;17.30;11.90;;;5.30;99.90;;;;;;4976374;28;20463;-79
2021/11/22 03:36:39;;;;;;;17.80;12.10;;;5.30;99.90;;;;;;4978265;28;20498;-79
2021/11/22 03:39:19;;;;;;;14.20;11.43;;;5.30;99.90;;;;;;4983329;28;20502;-80
2021/11/22 03:41:45;;;;;;;16.50;12.50;;;5.30;99.90;;;;;;4980652;28;20462;-79
2021/11/22 03:44:11;;;;;;;17.13;11.30;;;5.30;99.90;;;;;;4977982;28;20459;-79
2021/11/22 03:46:39;;;;;;;15.47;11.37;;;5.30;99.90;;;;;;4977274;28;20774;-79
2021/11/22 03:49:05;;;;;;;14.03;10.47;;;5.30;99.90;;;;;;4977747;28;20486;-80
2021/11/22 03:51:31;;;;;;;16.80;10.47;;;5.30;99.90;;;;;;4968003;28;20827;-79
2021/11/22 03:53:56;;;;;;;14.27;10.97;;;5.30;99.90;;;;;;4979089;28;20648;-79
2021/11/22 03:56:22;;;;;;;16.60;10.70;;;5.30;99.90;;;;;;4974987;28;20188;-79
2021/11/22 03:58:48;;;;;;;15.70;9.70;;;5.40;99.90;;;;;;4975111;28;20223;-79
2021/11/22 04:01:14;;;;;;;12.50;9.47;;;5.40;99.90;;;;;;4964769;28;20200;-79
2021/11/22 04:03:40;;;;;;;13.53;10.67;;;5.30;99.90;;;;;;4982057;28;20199;-79
2021/11/22 04:06:06;;;;;;;19.00;10.93;;;5.40;99.90;;;;;;4984400;28;20459;-79
2021/11/22 04:08:33;;;;;;;12.43;9.30;;;5.40;99.90;;;;;;4987384;28;22516;-79
2021/11/22 04:10:58;;;;;;;15.37;8.60;;;5.40;99.90;;;;;;4988847;28;20514;-80
2021/11/22 04:13:24;;;;;;;10.80;8.47;;;5.40;99.90;;;;;;4992418;28;20234;-78
2021/11/22 04:15:50;;;;;;;12.20;8.97;;;5.50;99.90;;;;;;4987117;28;20714;-79
2021/11/22 04:18:16;;;;;;;11.10;8.60;;;5.50;99.90;;;;;;4969109;28;20184;-78
2021/11/22 04:20:42;;;;;;;13.97;10.07;;;5.50;99.90;;;;;;4996557;28;21046;-78
2021/11/22 04:23:09;;;;;;;10.83;9.17;;;5.50;99.90;;;;;;4994714;28;20180;-80
2021/11/22 04:25:36;;;;;;;15.90;9.07;;;5.50;99.90;;;;;;4982742;28;20475;-78
2021/11/22 04:28:02;;;;;;;12.67;8.30;;;5.50;99.90;;;;;;4990062;28;20925;-80
2021/11/22 04:30:30;;;;;;;13.27;9.10;;;5.50;99.90;;;;;;4977851;28;20578;-77
2021/11/22 04:32:56;;;;;;;12.10;8.03;;;5.50;99.90;;;;;;4979103;28;20882;-79
2021/11/22 04:35:22;;;;;;;10.90;8.70;;;5.40;99.90;;;;;;4974293;28;20452;-80
2021/11/22 04:37:48;;;;;;;13.10;8.87;;;5.50;99.90;;;;;;4978334;28;20494;-80
2021/11/22 04:40:15;;;;;;;9.30;8.07;;;5.40;99.90;;;;;;4976540;28;20406;-79
2021/11/22 04:42:48;;;;;;;14.87;8.33;;;5.40;99.90;;;;;;4971810;28;20196;-80
2021/11/22 04:45:19;;;;;;;12.63;9.00;;;5.30;99.90;;;;;;4959568;28;20526;-80
2021/11/22 04:47:46;;;;;;;9.20;8.07;;;5.30;99.90;;;;;;4967278;28;20570;-79
2021/11/22 04:50:12;;;;;;;8.67;7.60;;;5.30;99.90;;;;;;4977277;28;20476;-79
2021/11/22 04:52:38;;;;;;;9.60;8.33;;;5.20;99.90;;;;;;4978457;28;20565;-79
2021/11/22 04:55:05;;;;;;;12.90;8.70;;;5.20;99.90;;;;;;4964188;28;20562;-80
2021/11/22 04:57:31;;;;;;;10.23;8.30;;;5.30;99.90;;;;;;4974327;28;20176;-79
2021/11/22 04:59:57;;;;;;;10.20;8.40;;;5.30;99.90;;;;;;4972420;28;20794;-79
2021/11/22 05:02:26;;;;;;;9.63;8.00;;;5.30;99.90;;;;;;4975879;28;21063;-80
2021/11/22 05:04:51;;;;;;;12.43;8.10;;;5.30;99.90;;;;;;4980675;28;20192;-80
2021/11/22 05:07:18;;;;;;;9.87;7.80;;;5.40;99.90;;;;;;4961366;28;20486;-80
2021/11/22 05:09:46;;;;;;;13.43;9.53;;;5.30;99.90;;;;;;4972062;28;20467;-79
2021/11/22 05:12:14;;;;;;;11.67;9.80;;;5.40;99.90;;;;;;4976247;28;20290;-79
2021/11/22 05:14:43;;;;;;;12.17;9.33;;;5.40;99.90;;;;;;4969381;28;20447;-80
2021/11/22 05:17:08;;;;;;;11.00;9.20;;;5.30;99.90;;;;;;4973164;28;20443;-80
2021/11/22 05:19:34;;;;;;;9.50;8.47;;;5.30;99.90;;;;;;4973259;28;20447;-79
2021/11/22 05:22:05;;;;;;;11.73;9.27;;;5.30;99.90;;;;;;4955682;28;20217;-80
2021/11/22 05:24:41;;;;;;;11.00;9.40;;;5.30;99.90;;;;;;4960769;28;20451;-80
2021/11/22 05:27:07;;;;;;;12.03;8.90;;;5.20;99.90;;;;;;4981102;28;20904;-80
2021/11/22 05:29:35;;;;;;;9.90;8.40;;;5.10;99.90;;;;;;4965318;28;20502;-79
2021/11/22 05:32:01;;;;;;;11.70;9.87;;;5.10;99.90;;;;;;4966243;28;20451;-78
2021/11/22 05:34:27;;;;;;;13.23;10.00;;;5.10;99.90;;;;;;4992622;28;20458;-78
2021/11/22 05:36:53;;;;;;;10.67;9.27;;;5.00;99.90;;;;;;4988860;28;20291;-78
2021/11/22 05:39:19;;;;;;;16.53;10.67;;;5.00;99.90;;;;;;4984804;28;20524;-78
2021/11/22 05:41:44;;;;;;;12.87;9.80;;;5.00;99.90;;;;;;4976429;28;20184;-79
2021/11/22 05:44:10;;;;;;;16.00;11.50;;;5.00;99.90;;;;;;4995326;28;20323;-77
2021/11/22 05:46:36;;;;;;;13.17;10.90;;;5.10;99.90;;;;;;4997231;28;20717;-78
2021/11/22 05:49:01;;;;;;;13.73;10.53;;;5.10;99.90;;;;;;4984903;28;20216;-78
2021/11/22 05:51:27;;;;;;;16.60;10.90;;;5.10;99.90;;;;;;4983263;28;20201;-79
2021/11/22 05:53:55;;;;;;;17.23;10.30;;;5.10;99.90;;;;;;4987324;28;20682;-79
2021/11/22 05:56:21;;;;;;;16.20;11.50;;;5.10;99.90;;;;;;4972741;28;20482;-78
2021/11/22 05:58:47;;;;;;;15.63;12.00;;;5.10;99.90;;;;;;4986364;28;20448;-78
2021/11/22 06:01:15;;;;;;;12.53;10.50;;;5.10;99.90;;;;;;4986745;28;20192;-78
2021/11/22 06:03:41;;;;;;;14.70;12.17;;;5.10;99.90;;;;;;4957783;28;21097;-78
2021/11/22 06:06:07;;;;;;;17.23;12.43;;;5.00;99.90;;;;;;4958478;28;20585;-78
2021/11/22 06:08:32;;;;;;;14.40;11.43;;;5.00;99.90;;;;;;4981015;28;21603;-78
2021/11/22 06:10:58;;;;;;;17.00;12.80;;;5.00;99.90;;;;;;4985038;28;20270;-78
2021/11/22 06:13:24;;;;;;;14.80;12.00;;;5.00;99.90;;;;;;4993359;28;20230;-78
2021/11/22 06:15:50;;;;;;;15.60;12.00;;;4.90;99.90;;;;;;4991051;28;20501;-78
2021/11/22 06:18:17;;;;;;;15.10;12.20;;;4.90;99.90;;;;;;4990265;28;20565;-78
2021/11/22 06:20:43;;;;;;;14.27;12.77;;;4.90;99.90;;;;;;4990288;28;21125;-79
2021/11/22 06:23:09;;;;;;;16.33;12.30;;;4.90;99.90;;;;;;4987600;28;20477;-78
2021/11/22 06:25:35;;;;;;;14.07;12.00;;;5.00;99.90;;;;;;4984384;28;20280;-78
2021/11/22 06:28:02;;;;;;;16.87;13.50;;;4.90;99.90;;;;;;4985184;28;20199;-78
2021/11/22 06:30:27;;;;;;;19.27;13.50;;;4.90;99.90;;;;;;4984124;28;20475;-78
2021/11/22 06:32:53;;;;;;;19.13;14.77;;;4.80;99.90;;;;;;4984990;28;20530;-77
2021/11/22 06:35:20;;;;;;;21.13;16.30;;;4.80;99.90;;;;;;4978803;28;20189;-78
2021/11/22 06:37:47;;;;;;;21.57;16.50;;;4.80;99.90;;;;;;4987440;28;20475;-78
2021/11/22 06:40:13;;;;;;;21.77;14.57;;;4.70;99.90;;;;;;4990331;28;20609;-79
2021/11/22 06:42:39;;;;;;;24.53;18.23;;;4.70;99.90;;;;;;4987263;28;20503;-80
2021/11/22 06:45:06;;;;;;;25.30;19.10;;;4.70;99.90;;;;;;4994222;28;20213;-79
2021/11/22 06:47:33;;;;;;;25.70;18.10;;;4.70;99.90;;;;;;4986444;28;20212;-79
2021/11/22 06:49:59;;;;;;;25.97;19.57;;;4.70;99.90;;;;;;4979715;28;20497;-79
2021/11/22 06:52:24;;;;;;;23.70;17.83;;;4.60;99.90;;;;;;4981496;28;20987;-80
2021/11/22 06:54:52;;;;;;;25.00;18.03;;;4.60;99.90;;;;;;4957225;28;20455;-79
2021/11/22 06:57:19;;;;;;;23.40;17.77;;;4.60;99.90;;;;;;4983215;28;21071;-79
2021/11/22 06:59:45;;;;;;;26.57;19.47;;;4.50;99.90;;;;;;4975355;28;20498;-80
2021/11/22 07:02:16;;;;;;;21.57;17.13;;;4.50;99.90;;;;;;4976110;28;21368;-80
2021/11/22 07:04:44;;;;;;;24.10;18.97;;;4.40;99.90;;;;;;4967816;28;21110;-79
2021/11/22 07:07:11;;;;;;;26.50;17.33;;;4.50;99.90;;;;;;4972300;28;21496;-79
2021/11/22 07:09:37;;;;;;;23.67;18.63;;;4.60;99.90;;;;;;4971860;28;20528;-79
2021/11/22 07:12:04;;;;;;;24.60;18.43;;;4.60;99.90;;;;;;4972606;28;20724;-79
2021/11/22 07:14:30;;;;;;;28.83;18.57;;;4.70;99.90;;;;;;4979389;28;20184;-79
2021/11/22 07:16:56;;;;;;;25.60;16.30;;;4.70;99.90;;;;;;4983964;28;20443;-79
2021/11/22 07:19:22;;;;;;;20.00;15.47;;;4.80;99.90;;;;;;4981298;28;21078;-79
2021/11/22 07:21:52;;;;;;;25.03;17.70;;;4.80;99.90;;;;;;4982044;28;24444;-80
2021/11/22 07:24:21;;;;;;;21.13;16.40;;;4.70;99.90;;;;;;4966083;28;20996;-79
2021/11/22 07:26:47;;;;;;;22.17;16.37;;;4.70;99.90;;;;;;4980250;28;20542;-79
2021/11/22 07:29:15;;;;;;;22.87;17.60;;;4.70;99.90;;;;;;4979905;28;20319;-79
2021/11/22 07:31:41;;;;;;;25.13;16.30;;;4.70;99.90;;;;;;4987369;28;20431;-79
2021/11/22 07:34:07;;;;;;;22.87;17.07;;;4.70;99.90;;;;;;4984917;28;20478;-79
2021/11/22 07:36:33;;;;;;;26.10;17.60;;;4.70;99.90;;;;;;4971750;28;20876;-78
2021/11/22 07:38:58;;;;;;;23.63;19.03;;;4.70;99.90;;;;;;4975931;28;20275;-79
2021/11/22 07:41:24;;;;;;;22.47;17.10;;;4.80;99.90;;;;;;4977941;28;20262;-79
2021/11/22 07:43:50;;;;;;;19.87;16.23;;;4.80;99.90;;;;;;4977090;28;20319;-79
2021/11/22 07:46:16;;;;;;;21.33;17.53;;;4.70;99.90;;;;;;4983175;28;20546;-78
2021/11/22 07:48:41;;;;;;;22.87;16.67;;;4.60;99.90;;;;;;4963744;28;20648;-78
2021/11/22 07:51:07;;;;;;;24.20;17.37;;;4.70;99.90;;;;;;4951588;28;20478;-78
2021/11/22 07:53:34;;;;;;;23.73;17.47;;;4.70;99.90;;;;;;4979317;28;20278;-78
2021/11/22 07:55:59;;;;;;;22.37;16.30;;;4.70;99.90;;;;;;4976371;28;20272;-78
2021/11/22 07:58:25;;;;;;;22.50;17.67;;;4.70;99.90;;;;;;4981114;28;20497;-78
2021/11/22 08:00:52;;;;;;;24.17;18.00;;;4.70;99.90;;;;;;4959476;28;20493;-78
2021/11/22 08:03:18;;;;;;;27.47;17.33;;;4.70;99.90;;;;;;4976676;28;20226;-79
2021/11/22 08:05:45;;;;;;;22.07;17.77;;;4.70;99.90;;;;;;4965628;28;20973;-79
2021/11/22 08:08:11;;;;;;;20.87;16.53;;;4.70;99.90;;;;;;4939863;28;20192;-79
2021/11/22 08:10:38;;;;;;;24.03;16.53;;;4.70;99.90;;;;;;4972491;28;20463;-78
2021/11/22 08:13:08;;;;;;;21.23;16.37;;;4.80;99.90;;;;;;4970397;28;20323;-78
2021/11/22 08:15:35;;;;;;;24.40;16.80;;;4.70;99.90;;;;;;4972028;28;20451;-77
2021/11/22 08:18:07;;;;;;;24.90;18.90;;;4.70;99.90;;;;;;4974895;28;20933;-78
2021/11/22 08:20:33;;;;;;;25.97;18.60;;;4.70;99.90;;;;;;4937869;28;20461;-78
2021/11/22 08:22:59;;;;;;;22.90;16.93;;;4.70;99.90;;;;;;4973581;28;20491;-78
2021/11/22 08:25:32;;;;;;;25.13;18.30;;;4.80;99.90;;;;;;4982775;28;20496;-76
2021/11/22 08:27:58;;;;;;;22.97;17.93;;;4.70;99.90;;;;;;4983917;28;20466;-78
2021/11/22 08:30:26;;;;;;;27.27;18.90;;;4.70;99.90;;;;;;4974784;28;20468;-77
2021/11/22 08:32:53;;;;;;;27.90;18.77;;;4.70;99.90;;;;;;4960273;28;20516;-77
2021/11/22 08:35:21;;;;;;;27.97;18.87;;;4.60;99.90;;;;;;4954427;28;20550;-77
2021/11/22 08:37:48;;;;;;;23.93;17.90;;;4.60;99.90;;;;;;4982054;28;20497;-78
2021/11/22 08:40:17;;;;;;;24.93;19.03;;;4.60;99.90;;;;;;4983654;28;20510;-78
2021/11/22 08:42:44;;;;;;;25.83;19.43;;;4.60;99.90;;;;;;4977472;28;20470;-78
2021/11/22 08:45:10;;;;;;;23.73;17.57;;;4.60;99.90;;;;;;4972459;28;20444;-78
2021/11/22 08:47:36;;;;;;;21.07;15.93;;;4.60;99.90;;;;;;4979412;28;20471;-78
2021/11/22 08:50:04;;;;;;;23.70;17.17;;;4.50;99.90;;;;;;4977828;28;20599;-78
2021/11/22 08:52:30;;;;;;;26.60;18.23;;;4.60;99.90;;;;;;4973555;28;20208;-77
2021/11/22 08:54:56;;;;;;;22.37;16.93;;;4.60;99.90;;;;;;4984149;28;20933;-78
2021/11/22 08:57:21;;;;;;;24.67;18.27;;;4.60;99.90;;;;;;4973318;28;22995;-78
2021/11/22 08:59:47;;;;;;;26.23;20.27;;;4.60;99.90;;;;;;4970944;28;20250;-78
2021/11/22 09:02:13;;;;;;;30.10;19.00;;;4.70;99.90;;;;;;4966424;28;20669;-78
2021/11/22 09:04:39;;;;;;;24.43;19.27;;;4.70;99.90;;;;;;4975752;28;20650;-78
2021/11/22 09:07:05;;;;;;;20.23;16.80;;;4.80;99.90;;;;;;4980422;28;21680;-77
2021/11/22 09:09:30;;;;;;;27.10;19.07;;;4.80;99.90;;;;;;4950718;28;20574;-78
2021/11/22 09:11:56;;;;;;;21.03;15.67;;;4.90;99.90;;;;;;4978970;28;20204;-77
2021/11/22 09:14:22;;;;;;;19.10;14.63;;;4.80;99.90;;;;;;4985472;28;20208;-78
2021/11/22 09:16:48;;;;;;;21.20;15.30;;;4.80;99.90;;;;;;4962262;28;22392;-77
2021/11/22 09:19:14;;;;;;;18.70;13.40;;;4.90;99.90;;;;;;4965236;28;20949;-77
2021/11/22 09:21:41;;;;;;;18.07;13.70;;;4.90;99.90;;;;;;4960001;28;20850;-78
2021/11/22 09:24:07;;;;;;;14.90;12.63;;;4.80;99.90;;;;;;4986291;28;20856;-78
2021/11/22 09:26:32;;;;;;;16.27;13.00;;;4.80;99.90;;;;;;4984198;28;20439;-77
2021/11/22 09:28:58;;;;;;;13.27;11.33;;;4.90;99.90;;;;;;4979162;28;20473;-78
2021/11/22 09:31:24;;;;;;;17.80;12.27;;;4.90;99.90;;;;;;4982255;28;20693;-78
2021/11/22 09:33:52;;;;;;;15.00;12.90;;;4.90;99.90;;;;;;4962474;28;20447;-77
2021/11/22 09:36:20;;;;;;;14.10;12.17;;;5.00;99.90;;;;;;4976418;28;20760;-78
2021/11/22 09:38:46;;;;;;;15.70;12.80;;;4.90;99.90;;;;;;4962231;28;20467;-78
2021/11/22 09:41:12;;;;;;;14.80;11.60;;;5.00;99.90;;;;;;4987104;28;20933;-78
2021/11/22 09:43:41;;;;;;;14.37;11.77;;;5.00;99.90;;;;;;4982916;28;20600;-78
2021/11/22 09:46:07;;;;;;;13.70;11.93;;;5.00;99.90;;;;;;4983129;28;20443;-78
2021/11/22 09:48:33;;;;;;;15.13;11.43;;;5.10;99.90;;;;;;4988531;28;20466;-78
2021/11/22 09:50:59;;;;;;;14.17;11.00;;;5.10;99.90;;;;;;4978903;28;22185;-78
2021/11/22 09:53:24;;;;;;;13.13;10.60;;;5.10;99.90;;;;;;4983569;28;20337;-78
2021/11/22 09:55:50;;;;;;;12.30;9.13;;;5.10;99.90;;;;;;4979229;28;20750;-78
2021/11/22 09:58:16;;;;;;;12.63;9.60;;;5.10;99.90;;;;;;4986397;28;20556;-77
2021/11/22 10:00:48;;;;;;;14.13;9.23;;;5.00;99.90;;;;;;4987493;28;20829;-77
2021/11/22 10:03:18;;;;;;;12.20;9.87;;;4.90;99.90;;;;;;4982585;28;21540;-78
2021/11/22 10:05:45;;;;;;;13.33;9.00;;;5.00;99.90;;;;;;4986666;28;20443;-78
2021/11/22 10:08:19;;;;;;;10.80;9.67;;;4.90;99.90;;;;;;4981276;28;20468;-78
2021/11/22 10:10:46;;;;;;;11.83;9.27;;;4.90;99.90;;;;;;4982296;28;20630;-78
2021/11/22 10:13:26;;;;;;;11.07;9.80;;;4.90;99.90;;;;;;4983617;28;20439;-78
2021/11/22 10:15:55;;;;;;;11.63;10.43;;;5.00;99.90;;;;;;4980640;28;20918;-78
2021/11/22 10:18:27;;;;;;;12.13;9.87;;;5.00;99.90;;;;;;4983516;28;20861;-78
2021/11/22 10:20:54;;;;;;;12.87;10.87;;;5.00;99.90;;;;;;4976099;28;20561;-78
2021/11/22 10:23:25;;;;;;;10.83;9.10;;;5.00;99.90;;;;;;4986010;28;20524;-77
2021/11/22 10:25:51;;;;;;;10.37;9.07;;;5.00;99.90;;;;;;4980240;28;22451;-78
2021/11/22 10:28:21;;;;;;;10.03;8.50;;;5.20;99.90;;;;;;4975455;28;20987;-77
2021/11/22 10:31:01;;;;;;;12.30;10.07;;;5.20;99.90;;;;;;4983915;28;20970;-78
2021/11/22 10:33:30;;;;;;;9.20;8.20;;;5.30;99.90;;;;;;4959662;28;20447;-78
2021/11/22 10:36:00;;;;;;;12.43;8.50;;;5.30;99.90;;;;;;4973271;28;20506;-77
2021/11/22 10:38:27;;;;;;;7.97;7.03;;;5.30;99.90;;;;;;4977721;28;20554;-78
2021/11/22 10:40:57;;;;;;;7.83;7.03;;;5.20;99.90;;;;;;4983650;28;20466;-78
2021/11/22 10:43:34;;;;;;;13.20;8.20;;;5.30;99.90;;;;;;4980869;28;20804;-78
2021/11/22 10:46:00;;;;;;;9.13;6.80;;;5.40;79.50;;;;;;4981837;28;20465;-78
2021/11/22 10:48:28;;;;;;;7.77;6.97;;;5.50;8.20;;;;;;4993243;28;20451;-78
2021/11/22 10:51:16;;;;;;;9.20;7.73;;;5.60;1.00;;;;;;4995855;28;20290;-77
2021/11/22 10:53:45;;;;;;;17.07;8.40;;;5.80;1.00;;;;;;4990195;28;20463;-77
2021/11/22 10:56:21;;;;;;;12.90;10.33;;;5.90;1.00;;;;;;4983764;28;20545;-77
2021/11/22 10:58:56;;;;;;;12.40;10.50;;;5.80;1.00;;;;;;4990807;28;20454;-78
2021/11/22 11:01:24;;;;;;;11.10;9.97;;;5.60;1.00;;;;;;4989057;28;20470;-78
2021/11/22 11:04:19;;;;;;;16.93;11.40;;;5.60;14.30;;;;;;4976611;28;20846;-77
2021/11/22 11:07:05;;;;;;;15.63;10.10;;;5.50;37.20;;;;;;4974260;28;20455;-77
2021/11/22 11:09:49;;;;;;;13.10;10.83;;;5.50;76.50;;;;;;4978643;28;20471;-78
2021/11/22 11:12:20;;;;;;;12.20;10.10;;;5.40;63.50;;;;;;4969827;28;20450;-77
2021/11/22 11:14:50;;;;;;;15.00;9.40;;;5.40;27.30;;;;;;4955682;28;20452;-78
2021/11/22 11:17:32;;;;;;;9.90;8.90;;;5.50;53.40;;;;;;4975254;28;20798;-78
2021/11/22 11:20:06;;;;;;;9.77;8.30;;;5.60;27.60;;;;;;4986883;28;20447;-78
2021/11/22 11:22:32;;;;;;;18.50;10.30;;;5.70;8.10;;;;;;4988025;28;20562;-78
2021/11/22 11:24:59;;;;;;;10.20;8.20;;;5.70;1.00;;;;;;4985735;28;20462;-78
2021/11/22 11:27:25;;;;;;;15.20;10.50;;;5.80;1.00;;;;;;4974314;28;20204;-78
2021/11/22 11:29:51;;;;;;;14.50;10.13;;;5.90;1.00;;;;;;4982829;28;20908;-77
2021/11/22 11:32:18;;;;;;;12.20;9.00;;;5.90;1.00;;;;;;4973820;28;21118;-77
2021/11/22 11:34:48;;;;;;;9.00;7.80;;;5.80;1.00;;;;;;4966173;28;20443;-78
2021/11/22 11:37:42;;;;;;;14.33;10.23;;;5.70;1.00;;;;;;4979080;28;21102;-78
2021/11/22 11:40:29;;;;;;;14.70;8.73;;;5.70;1.00;;;;;;4986596;28;20835;-78
2021/11/22 11:43:33;;;;;;;10.80;8.03;;;5.60;1.00;;;;;;4968033;28;20451;-78
2021/11/22 11:46:30;;;;;;;9.30;7.40;;;5.70;1.00;;;;;;4984394;28;20481;-78
2021/11/22 11:49:00;;;;;;;8.60;7.73;;;5.70;1.00;;;;;;4975949;28;20454;-77
2021/11/22 11:51:46;;;;;;;9.50;7.40;;;5.70;1.00;;;;;;4981485;28;20483;-78
2021/11/22 11:54:21;;;;;;;14.13;7.17;;;5.70;1.00;;;;;;4968053;28;20890;-78
2021/11/22 11:56:54;;;;;;;9.10;7.07;;;5.80;1.00;;;;;;4979170;28;20826;-78
2021/11/22 11:59:36;;;;;;;11.47;7.80;;;5.90;1.00;;;;;;4973617;28;20961;-78
2021/11/22 12:02:13;;;;;;;11.63;7.90;;;5.90;1.00;;;;;;4986155;28;20443;-78
2021/11/22 12:04:49;;;;;;;11.67;8.40;;;5.90;1.00;;;;;;4973803;28;20570;-78
2021/11/22 12:07:38;;;;;;;10.73;7.90;;;6.10;1.00;;;;;;4986199;28;20461;-78
2021/11/22 12:10:09;;;;;;;10.93;7.77;;;6.10;1.00;;;;;;4968045;28;20542;-78
2021/11/22 12:12:55;;;;;;;8.27;7.30;;;6.20;1.00;;;;;;4979434;28;20446;-77
2021/11/22 12:15:31;;;;;;;15.30;7.40;;;6.20;1.00;;;;;;4976871;28;20486;-77
2021/11/22 12:18:11;;;;;;;6.30;5.30;;;6.30;1.00;;;;;;4958928;28;21259;-77
2021/11/22 12:20:41;;;;;;;8.47;4.97;;;6.10;1.00;;;;;;4981136;28;20491;-78
2021/11/22 12:23:16;;;;;;;4.83;4.33;;;6.00;1.00;;;;;;4968723;28;20958;-78
2021/11/22 12:25:44;;;;;;;5.70;4.53;;;6.00;1.00;;;;;;4978782;28;20461;-79
2021/11/22 12:28:18;;;;;;;5.77;4.23;;;6.00;1.00;;;;;;4977318;28;20499;-78
2021/11/22 12:30:56;;;;;;;5.27;4.77;;;6.00;1.00;;;;;;4976449;28;20477;-79
2021/11/22 12:33:24;;;;;;;4.90;4.40;;;5.90;1.00;;;;;;4973765;28;20486;-77
2021/11/22 12:36:00;;;;;;;4.80;4.30;;;5.90;1.00;;;;;;4980803;28;20754;-79
2021/11/22 12:38:35;;;;;;;4.13;3.70;;;6.00;1.00;;;;;;4973032;28;21128;-76
2021/11/22 12:41:11;;;;;;;6.70;4.20;;;6.00;1.00;;;;;;4976053;28;20539;-79
2021/11/22 12:43:45;;;;;;;5.90;3.63;;;6.00;1.00;;;;;;4974137;28;20952;-79
2021/11/22 12:46:18;;;;;;;6.43;4.13;;;6.00;1.00;;;;;;4980264;28;20458;-79
2021/11/22 12:48:47;;;;;;;4.70;3.80;;;6.00;1.00;;;;;;4970735;28;20486;-79
2021/11/22 12:51:15;;;;;;;5.43;3.90;;;6.10;1.00;;;;;;4971398;28;20485;-81